sensor_id;sensor_type;location;lat;lon;timestamp;temperature;humidity
19172;DHT22;9718;52.200;21.052;2022-08-19T00:01:52;20.30;99.90
19172;DHT22;9718;52.200;21.052;2022-08-19T00:04:25;20.40;99.90
19172;DHT22;9718;52.200;21.052;2022-08-19T00:06:53;20.40;99.90
19172;DHT22;9718;52.200;21.052;2022-08-19T00:09:22;20.30;99.90
19172;DHT22;9718;52.200;21.052;2022-08-19T00:11:50;20.30;99.90
19172;DHT22;9718;52.200;21.052;2022-08-19T00:14:19;20.20;99.90
19172;DHT22;9718;52.200;21.052;2022-08-19T00:16:47;20.20;99.90
19172;DHT22;9718;52.200;21.052;2022-08-19T00:19:16;20.10;99.90
19172;DHT22;9718;52.200;21.052;2022-08-19T00:21:43;20.10;99.90
19172;DHT22;9718;52.200;21.052;2022-08-19T00:24:12;20.10;99.90
19172;DHT22;9718;52.200;21.052;2022-08-19T00:26:41;20.10;99.90
19172;DHT22;9718;52.200;21.052;2022-08-19T00:29:10;20.10;99.90
19172;DHT22;9718;52.200;21.052;2022-08-19T00:31:38;20.10;99.90
19172;DHT22;9718;52.200;21.052;2022-08-19T00:34:05;20.10;99.90
19172;DHT22;9718;52.200;21.052;2022-08-19T00:36:33;20.00;99.90
19172;DHT22;9718;52.200;21.052;2022-08-19T00:39:00;20.00;99.90
19172;DHT22;9718;52.200;21.052;2022-08-19T00:41:27;20.00;99.90
19172;DHT22;9718;52.200;21.052;2022-08-19T00:44:10;20.00;99.90
19172;DHT22;9718;52.200;21.052;2022-08-19T00:46:39;20.00;99.90
19172;DHT22;9718;52.200;21.052;2022-08-19T00:49:12;19.90;99.90
19172;DHT22;9718;52.200;21.052;2022-08-19T00:51:42;19.90;99.90
19172;DHT22;9718;52.200;21.052;2022-08-19T00:54:11;19.90;99.90
19172;DHT22;9718;52.200;21.052;2022-08-19T00:56:39;19.90;99.90
19172;DHT22;9718;52.200;21.052;2022-08-19T00:59:07;19.90;99.90
19172;DHT22;9718;52.200;21.052;2022-08-19T01:01:41;19.80;99.90
19172;DHT22;9718;52.200;21.052;2022-08-19T01:04:08;19.70;99.90
19172;DHT22;9718;52.200;21.052;2022-08-19T01:06:37;19.60;99.90
19172;DHT22;9718;52.200;21.052;2022-08-19T01:09:05;19.60;99.90
19172;DHT22;9718;52.200;21.052;2022-08-19T01:11:35;19.60;99.90
19172;DHT22;9718;52.200;21.052;2022-08-19T01:14:03;19.60;99.90
19172;DHT22;9718;52.200;21.052;2022-08-19T01:16:31;19.60;99.90
19172;DHT22;9718;52.200;21.052;2022-08-19T01:18:58;19.60;99.90
19172;DHT22;9718;52.200;21.052;2022-08-19T01:21:40;19.60;99.90
19172;DHT22;9718;52.200;21.052;2022-08-19T01:24:09;19.60;99.90
19172;DHT22;9718;52.200;21.052;2022-08-19T01:26:41;19.60;99.90
19172;DHT22;9718;52.200;21.052;2022-08-19T01:29:10;19.50;99.90
19172;DHT22;9718;52.200;21.052;2022-08-19T01:31:37;19.60;99.90
19172;DHT22;9718;52.200;21.052;2022-08-19T01:34:06;19.50;99.90
19172;DHT22;9718;52.200;21.052;2022-08-19T01:36:43;19.50;99.90
19172;DHT22;9718;52.200;21.052;2022-08-19T01:39:15;19.40;99.90
19172;DHT22;9718;52.200;21.052;2022-08-19T01:41:42;19.50;99.90
19172;DHT22;9718;52.200;21.052;2022-08-19T01:44:10;19.40;99.90
19172;DHT22;9718;52.200;21.052;2022-08-19T01:46:46;19.40;99.90
19172;DHT22;9718;52.200;21.052;2022-08-19T01:49:16;19.30;99.90
19172;DHT22;9718;52.200;21.052;2022-08-19T01:51:43;19.30;99.90
19172;DHT22;9718;52.200;21.052;2022-08-19T01:54:13;19.30;99.90
19172;DHT22;9718;52.200;21.052;2022-08-19T01:57:05;19.30;99.90
19172;DHT22;9718;52.200;21.052;2022-08-19T01:59:32;19.10;99.90
19172;DHT22;9718;52.200;21.052;2022-08-19T02:01:59;19.20;99.90
19172;DHT22;9718;52.200;21.052;2022-08-19T02:04:26;19.20;99.90
19172;DHT22;9718;52.200;21.052;2022-08-19T02:06:54;19.20;99.90
19172;DHT22;9718;52.200;21.052;2022-08-19T02:09:21;19.20;99.90
19172;DHT22;9718;52.200;21.052;2022-08-19T02:11:48;19.30;99.90
19172;DHT22;9718;52.200;21.052;2022-08-19T02:14:15;19.30;99.90
19172;DHT22;9718;52.200;21.052;2022-08-19T02:16:42;19.30;99.90
19172;DHT22;9718;52.200;21.052;2022-08-19T02:19:09;19.30;99.90
19172;DHT22;9718;52.200;21.052;2022-08-19T02:21:37;19.30;99.90
19172;DHT22;9718;52.200;21.052;2022-08-19T02:24:04;19.30;99.90
19172;DHT22;9718;52.200;21.052;2022-08-19T02:26:32;19.40;99.90
19172;DHT22;9718;52.200;21.052;2022-08-19T02:28:59;19.40;99.90
19172;DHT22;9718;52.200;21.052;2022-08-19T02:31:27;19.40;99.90
19172;DHT22;9718;52.200;21.052;2022-08-19T02:33:57;19.50;99.90
19172;DHT22;9718;52.200;21.052;2022-08-19T02:36:25;19.60;99.90
19172;DHT22;9718;52.200;21.052;2022-08-19T02:38:52;19.60;99.90
19172;DHT22;9718;52.200;21.052;2022-08-19T02:41:28;19.60;99.90
19172;DHT22;9718;52.200;21.052;2022-08-19T02:43:56;19.60;99.90
19172;DHT22;9718;52.200;21.052;2022-08-19T02:46:48;19.60;99.90
19172;DHT22;9718;52.200;21.052;2022-08-19T02:49:18;19.50;99.90
19172;DHT22;9718;52.200;21.052;2022-08-19T02:51:45;19.50;99.90
19172;DHT22;9718;52.200;21.052;2022-08-19T02:54:13;19.40;99.90
19172;DHT22;9718;52.200;21.052;2022-08-19T02:56:42;19.40;99.90
19172;DHT22;9718;52.200;21.052;2022-08-19T02:59:09;19.30;99.90
19172;DHT22;9718;52.200;21.052;2022-08-19T03:01:39;19.20;99.90
19172;DHT22;9718;52.200;21.052;2022-08-19T03:04:09;19.10;99.90
19172;DHT22;9718;52.200;21.052;2022-08-19T03:06:38;19.00;99.90
19172;DHT22;9718;52.200;21.052;2022-08-19T03:09:05;18.90;99.90
19172;DHT22;9718;52.200;21.052;2022-08-19T03:11:33;19.00;99.90
19172;DHT22;9718;52.200;21.052;2022-08-19T03:14:01;19.00;99.90
19172;DHT22;9718;52.200;21.052;2022-08-19T03:16:30;19.00;99.90
19172;DHT22;9718;52.200;21.052;2022-08-19T03:19:01;18.90;99.90
19172;DHT22;9718;52.200;21.052;2022-08-19T03:21:30;18.90;99.90
19172;DHT22;9718;52.200;21.052;2022-08-19T03:24:00;18.90;99.90
19172;DHT22;9718;52.200;21.052;2022-08-19T03:26:28;18.90;99.90
19172;DHT22;9718;52.200;21.052;2022-08-19T03:28:56;18.90;99.90
19172;DHT22;9718;52.200;21.052;2022-08-19T03:31:25;18.90;99.90
19172;DHT22;9718;52.200;21.052;2022-08-19T03:34:19;18.90;99.90
19172;DHT22;9718;52.200;21.052;2022-08-19T03:36:47;18.90;99.90
19172;DHT22;9718;52.200;21.052;2022-08-19T03:39:15;19.00;99.90
19172;DHT22;9718;52.200;21.052;2022-08-19T03:41:44;19.00;99.90
19172;DHT22;9718;52.200;21.052;2022-08-19T03:44:20;19.00;99.90
19172;DHT22;9718;52.200;21.052;2022-08-19T03:46:51;19.10;99.90
19172;DHT22;9718;52.200;21.052;2022-08-19T03:49:19;19.10;99.90
19172;DHT22;9718;52.200;21.052;2022-08-19T03:51:48;19.20;99.90
19172;DHT22;9718;52.200;21.052;2022-08-19T03:54:19;19.20;99.90
19172;DHT22;9718;52.200;21.052;2022-08-19T03:56:49;19.20;99.90
19172;DHT22;9718;52.200;21.052;2022-08-19T03:59:29;19.10;99.90
19172;DHT22;9718;52.200;21.052;2022-08-19T04:01:58;19.10;99.90
19172;DHT22;9718;52.200;21.052;2022-08-19T04:04:25;19.10;99.90
19172;DHT22;9718;52.200;21.052;2022-08-19T04:06:55;19.20;99.90
19172;DHT22;9718;52.200;21.052;2022-08-19T04:09:23;19.30;99.90
19172;DHT22;9718;52.200;21.052;2022-08-19T04:11:52;19.30;99.90
19172;DHT22;9718;52.200;21.052;2022-08-19T04:14:28;19.40;99.90
19172;DHT22;9718;52.200;21.052;2022-08-19T04:17:01;19.50;99.90
19172;DHT22;9718;52.200;21.052;2022-08-19T04:19:31;19.60;99.90
19172;DHT22;9718;52.200;21.052;2022-08-19T04:21:58;19.70;99.90
19172;DHT22;9718;52.200;21.052;2022-08-19T04:24:25;19.80;99.90
19172;DHT22;9718;52.200;21.052;2022-08-19T04:26:53;20.00;99.90
19172;DHT22;9718;52.200;21.052;2022-08-19T04:29:23;20.10;99.90
19172;DHT22;9718;52.200;21.052;2022-08-19T04:31:53;20.30;99.90
19172;DHT22;9718;52.200;21.052;2022-08-19T04:34:23;20.50;99.90
19172;DHT22;9718;52.200;21.052;2022-08-19T04:36:52;20.70;99.90
19172;DHT22;9718;52.200;21.052;2022-08-19T04:39:21;21.00;99.90
19172;DHT22;9718;52.200;21.052;2022-08-19T04:41:49;21.20;99.90
19172;DHT22;9718;52.200;21.052;2022-08-19T04:44:35;21.50;99.90
19172;DHT22;9718;52.200;21.052;2022-08-19T04:47:12;21.70;99.90
19172;DHT22;9718;52.200;21.052;2022-08-19T04:49:39;21.80;99.90
19172;DHT22;9718;52.200;21.052;2022-08-19T04:52:06;22.00;99.90
19172;DHT22;9718;52.200;21.052;2022-08-19T04:54:35;22.20;99.90
19172;DHT22;9718;52.200;21.052;2022-08-19T04:57:06;22.30;99.90
19172;DHT22;9718;52.200;21.052;2022-08-19T04:59:34;22.50;99.90
19172;DHT22;9718;52.200;21.052;2022-08-19T05:02:03;22.60;99.90
19172;DHT22;9718;52.200;21.052;2022-08-19T05:04:31;22.70;99.90
19172;DHT22;9718;52.200;21.052;2022-08-19T05:06:59;22.70;99.90
19172;DHT22;9718;52.200;21.052;2022-08-19T05:09:29;22.90;99.90
19172;DHT22;9718;52.200;21.052;2022-08-19T05:12:17;23.00;99.90
19172;DHT22;9718;52.200;21.052;2022-08-19T05:14:45;23.20;99.90
19172;DHT22;9718;52.200;21.052;2022-08-19T05:17:14;23.20;99.90
19172;DHT22;9718;52.200;21.052;2022-08-19T05:20:03;23.20;99.90
19172;DHT22;9718;52.200;21.052;2022-08-19T05:22:50;23.20;99.90
19172;DHT22;9718;52.200;21.052;2022-08-19T05:25:19;23.10;99.90
19172;DHT22;9718;52.200;21.052;2022-08-19T05:27:47;23.20;99.90
19172;DHT22;9718;52.200;21.052;2022-08-19T05:30:15;23.20;99.90
19172;DHT22;9718;52.200;21.052;2022-08-19T05:32:43;23.30;99.90
19172;DHT22;9718;52.200;21.052;2022-08-19T05:35:10;23.30;99.90
19172;DHT22;9718;52.200;21.052;2022-08-19T05:37:38;23.30;99.90
19172;DHT22;9718;52.200;21.052;2022-08-19T05:40:08;23.30;99.90
19172;DHT22;9718;52.200;21.052;2022-08-19T05:42:36;23.30;99.90
19172;DHT22;9718;52.200;21.052;2022-08-19T05:45:04;23.40;99.90
19172;DHT22;9718;52.200;21.052;2022-08-19T05:47:32;23.40;99.90
19172;DHT22;9718;52.200;21.052;2022-08-19T05:49:59;23.50;99.90
19172;DHT22;9718;52.200;21.052;2022-08-19T05:52:30;23.50;99.90
19172;DHT22;9718;52.200;21.052;2022-08-19T05:54:59;23.60;99.90
19172;DHT22;9718;52.200;21.052;2022-08-19T05:57:26;23.80;99.90
19172;DHT22;9718;52.200;21.052;2022-08-19T05:59:55;23.90;99.90
19172;DHT22;9718;52.200;21.052;2022-08-19T06:02:26;24.00;99.90
19172;DHT22;9718;52.200;21.052;2022-08-19T06:04:53;24.00;99.90
19172;DHT22;9718;52.200;21.052;2022-08-19T06:07:20;24.00;99.90
19172;DHT22;9718;52.200;21.052;2022-08-19T06:09:47;24.10;99.90
19172;DHT22;9718;52.200;21.052;2022-08-19T06:12:31;24.20;99.90
19172;DHT22;9718;52.200;21.052;2022-08-19T06:15:06;24.40;99.90
19172;DHT22;9718;52.200;21.052;2022-08-19T06:17:33;24.50;99.90
19172;DHT22;9718;52.200;21.052;2022-08-19T06:20:06;24.70;99.90
19172;DHT22;9718;52.200;21.052;2022-08-19T06:22:42;24.80;99.90
19172;DHT22;9718;52.200;21.052;2022-08-19T06:25:11;24.80;99.90
19172;DHT22;9718;52.200;21.052;2022-08-19T06:27:38;24.80;99.90
19172;DHT22;9718;52.200;21.052;2022-08-19T06:30:26;24.90;99.90
19172;DHT22;9718;52.200;21.052;2022-08-19T06:32:53;24.80;99.90
19172;DHT22;9718;52.200;21.052;2022-08-19T06:35:21;24.80;99.90
19172;DHT22;9718;52.200;21.052;2022-08-19T06:37:47;24.90;99.90
19172;DHT22;9718;52.200;21.052;2022-08-19T06:40:15;25.00;99.90
19172;DHT22;9718;52.200;21.052;2022-08-19T06:42:42;25.30;99.90
19172;DHT22;9718;52.200;21.052;2022-08-19T06:45:22;25.50;99.90
19172;DHT22;9718;52.200;21.052;2022-08-19T06:47:51;25.90;99.90
19172;DHT22;9718;52.200;21.052;2022-08-19T06:50:21;26.20;99.90
19172;DHT22;9718;52.200;21.052;2022-08-19T06:52:51;26.30;99.90
19172;DHT22;9718;52.200;21.052;2022-08-19T06:55:19;26.30;99.90
19172;DHT22;9718;52.200;21.052;2022-08-19T06:57:46;26.30;99.90
19172;DHT22;9718;52.200;21.052;2022-08-19T07:00:15;26.30;99.90
19172;DHT22;9718;52.200;21.052;2022-08-19T07:02:43;26.20;99.90
19172;DHT22;9718;52.200;21.052;2022-08-19T07:05:21;26.30;99.90
19172;DHT22;9718;52.200;21.052;2022-08-19T07:07:48;26.60;99.90
19172;DHT22;9718;52.200;21.052;2022-08-19T07:10:17;26.80;99.90
19172;DHT22;9718;52.200;21.052;2022-08-19T07:12:45;26.70;99.90
19172;DHT22;9718;52.200;21.052;2022-08-19T07:15:13;26.70;99.90
19172;DHT22;9718;52.200;21.052;2022-08-19T07:17:40;26.70;99.90
19172;DHT22;9718;52.200;21.052;2022-08-19T07:20:09;26.80;99.90
19172;DHT22;9718;52.200;21.052;2022-08-19T07:22:38;27.00;99.90
19172;DHT22;9718;52.200;21.052;2022-08-19T07:25:07;27.20;99.90
19172;DHT22;9718;52.200;21.052;2022-08-19T07:27:34;27.50;99.90
19172;DHT22;9718;52.200;21.052;2022-08-19T07:30:03;27.80;99.90
19172;DHT22;9718;52.200;21.052;2022-08-19T07:32:31;28.00;99.90
19172;DHT22;9718;52.200;21.052;2022-08-19T07:34:59;28.20;99.90
19172;DHT22;9718;52.200;21.052;2022-08-19T07:37:27;28.20;99.90
19172;DHT22;9718;52.200;21.052;2022-08-19T07:40:00;28.10;99.90
19172;DHT22;9718;52.200;21.052;2022-08-19T07:42:28;28.10;99.90
19172;DHT22;9718;52.200;21.052;2022-08-19T07:44:57;28.30;99.90
19172;DHT22;9718;52.200;21.052;2022-08-19T07:47:25;28.40;99.90
19172;DHT22;9718;52.200;21.052;2022-08-19T07:50:13;28.70;99.90
19172;DHT22;9718;52.200;21.052;2022-08-19T07:52:40;28.90;99.90
19172;DHT22;9718;52.200;21.052;2022-08-19T07:55:09;28.90;99.90
19172;DHT22;9718;52.200;21.052;2022-08-19T07:57:57;29.00;99.90
19172;DHT22;9718;52.200;21.052;2022-08-19T08:00:25;29.20;99.90
19172;DHT22;9718;52.200;21.052;2022-08-19T08:02:53;29.30;99.90
19172;DHT22;9718;52.200;21.052;2022-08-19T08:05:23;29.20;99.90
19172;DHT22;9718;52.200;21.052;2022-08-19T08:08:10;29.20;99.90
19172;DHT22;9718;52.200;21.052;2022-08-19T08:10:59;29.20;99.90
19172;DHT22;9718;52.200;21.052;2022-08-19T08:13:27;29.20;99.90
19172;DHT22;9718;52.200;21.052;2022-08-19T08:15:55;29.10;99.90
19172;DHT22;9718;52.200;21.052;2022-08-19T08:18:25;29.20;99.90
19172;DHT22;9718;52.200;21.052;2022-08-19T08:20:57;29.40;99.90
19172;DHT22;9718;52.200;21.052;2022-08-19T08:23:25;29.50;99.90
19172;DHT22;9718;52.200;21.052;2022-08-19T08:25:55;29.50;99.90
19172;DHT22;9718;52.200;21.052;2022-08-19T08:28:25;29.40;99.90
19172;DHT22;9718;52.200;21.052;2022-08-19T08:30:56;29.30;99.90
19172;DHT22;9718;52.200;21.052;2022-08-19T08:33:26;29.40;99.90
19172;DHT22;9718;52.200;21.052;2022-08-19T08:36:04;29.40;99.90
19172;DHT22;9718;52.200;21.052;2022-08-19T08:38:32;29.50;99.90
19172;DHT22;9718;52.200;21.052;2022-08-19T08:41:31;29.60;99.90
19172;DHT22;9718;52.200;21.052;2022-08-19T08:43:56;29.70;99.90
19172;DHT22;9718;52.200;21.052;2022-08-19T08:46:37;29.70;99.90
19172;DHT22;9718;52.200;21.052;2022-08-19T08:52:04;30.00;99.90
19172;DHT22;9718;52.200;21.052;2022-08-19T08:54:37;30.10;99.90
19172;DHT22;9718;52.200;21.052;2022-08-19T09:00:07;30.00;99.90
19172;DHT22;9718;52.200;21.052;2022-08-19T09:02:43;30.10;99.90
19172;DHT22;9718;52.200;21.052;2022-08-19T09:05:11;30.50;99.90
19172;DHT22;9718;52.200;21.052;2022-08-19T09:10:30;30.80;99.90
19172;DHT22;9718;52.200;21.052;2022-08-19T09:13:29;30.90;99.90
19172;DHT22;9718;52.200;21.052;2022-08-19T09:16:12;31.00;99.90
19172;DHT22;9718;52.200;21.052;2022-08-19T09:18:48;31.10;99.90
19172;DHT22;9718;52.200;21.052;2022-08-19T09:21:15;31.10;99.90
19172;DHT22;9718;52.200;21.052;2022-08-19T09:23:43;31.30;99.90
19172;DHT22;9718;52.200;21.052;2022-08-19T09:26:18;31.40;99.90
19172;DHT22;9718;52.200;21.052;2022-08-19T09:28:50;31.40;99.90
19172;DHT22;9718;52.200;21.052;2022-08-19T09:31:21;31.40;99.90
19172;DHT22;9718;52.200;21.052;2022-08-19T09:33:49;31.50;99.90
19172;DHT22;9718;52.200;21.052;2022-08-19T09:36:20;31.70;99.90
19172;DHT22;9718;52.200;21.052;2022-08-19T09:39:02;31.50;99.90
19172;DHT22;9718;52.200;21.052;2022-08-19T09:41:29;31.60;99.90
19172;DHT22;9718;52.200;21.052;2022-08-19T09:43:58;31.70;99.90
19172;DHT22;9718;52.200;21.052;2022-08-19T09:46:28;31.90;99.90
19172;DHT22;9718;52.200;21.052;2022-08-19T09:48:58;31.90;99.90
19172;DHT22;9718;52.200;21.052;2022-08-19T09:51:33;32.20;99.90
19172;DHT22;9718;52.200;21.052;2022-08-19T09:54:04;32.30;99.90
19172;DHT22;9718;52.200;21.052;2022-08-19T09:56:32;32.40;99.90
19172;DHT22;9718;52.200;21.052;2022-08-19T09:59:01;32.40;99.90
19172;DHT22;9718;52.200;21.052;2022-08-19T10:01:31;32.50;99.90
19172;DHT22;9718;52.200;21.052;2022-08-19T10:04:00;32.60;99.90
19172;DHT22;9718;52.200;21.052;2022-08-19T10:06:36;32.40;99.90
19172;DHT22;9718;52.200;21.052;2022-08-19T10:09:12;32.30;99.90
19172;DHT22;9718;52.200;21.052;2022-08-19T10:11:42;32.40;99.90
19172;DHT22;9718;52.200;21.052;2022-08-19T10:14:19;32.30;99.90
19172;DHT22;9718;52.200;21.052;2022-08-19T10:16:49;32.50;99.90
19172;DHT22;9718;52.200;21.052;2022-08-19T10:19:17;32.80;99.90
19172;DHT22;9718;52.200;21.052;2022-08-19T10:21:52;32.80;99.90
19172;DHT22;9718;52.200;21.052;2022-08-19T10:24:26;32.70;99.90
19172;DHT22;9718;52.200;21.052;2022-08-19T10:26:55;32.60;99.90
19172;DHT22;9718;52.200;21.052;2022-08-19T10:29:26;32.40;99.90
19172;DHT22;9718;52.200;21.052;2022-08-19T10:32:04;32.60;99.90
19172;DHT22;9718;52.200;21.052;2022-08-19T10:34:39;32.80;99.90
19172;DHT22;9718;52.200;21.052;2022-08-19T10:37:16;33.00;99.90
19172;DHT22;9718;52.200;21.052;2022-08-19T10:39:56;33.20;99.90
19172;DHT22;9718;52.200;21.052;2022-08-19T10:42:24;33.40;99.90
19172;DHT22;9718;52.200;21.052;2022-08-19T10:44:51;33.30;99.90
19172;DHT22;9718;52.200;21.052;2022-08-19T10:47:18;33.10;99.90
19172;DHT22;9718;52.200;21.052;2022-08-19T10:49:53;33.20;99.90
19172;DHT22;9718;52.200;21.052;2022-08-19T10:52:45;33.20;99.90
19172;DHT22;9718;52.200;21.052;2022-08-19T10:55:22;33.30;99.90
19172;DHT22;9718;52.200;21.052;2022-08-19T10:58:16;33.40;99.90
19172;DHT22;9718;52.200;21.052;2022-08-19T11:00:52;33.70;99.90
19172;DHT22;9718;52.200;21.052;2022-08-19T11:03:20;33.70;99.90
19172;DHT22;9718;52.200;21.052;2022-08-19T11:06:00;33.60;99.90
19172;DHT22;9718;52.200;21.052;2022-08-19T11:08:28;33.60;99.90
19172;DHT22;9718;52.200;21.052;2022-08-19T11:10:55;33.40;99.90
19172;DHT22;9718;52.200;21.052;2022-08-19T11:13:32;33.40;99.90
19172;DHT22;9718;52.200;21.052;2022-08-19T11:16:19;33.40;99.90
19172;DHT22;9718;52.200;21.052;2022-08-19T11:18:51;33.40;99.90
19172;DHT22;9718;52.200;21.052;2022-08-19T11:23:52;33.50;99.90
19172;DHT22;9718;52.200;21.052;2022-08-19T11:26:20;33.50;99.90
19172;DHT22;9718;52.200;21.052;2022-08-19T11:28:48;33.60;99.90
19172;DHT22;9718;52.200;21.052;2022-08-19T11:31:20;33.70;99.90
19172;DHT22;9718;52.200;21.052;2022-08-19T11:33:49;33.70;99.90
19172;DHT22;9718;52.200;21.052;2022-08-19T11:36:22;33.90;99.90
19172;DHT22;9718;52.200;21.052;2022-08-19T11:38:50;34.00;99.90
19172;DHT22;9718;52.200;21.052;2022-08-19T11:41:19;34.00;99.90
19172;DHT22;9718;52.200;21.052;2022-08-19T11:43:47;34.20;99.90
19172;DHT22;9718;52.200;21.052;2022-08-19T11:46:15;34.10;99.90
19172;DHT22;9718;52.200;21.052;2022-08-19T11:48:43;34.20;99.90
19172;DHT22;9718;52.200;21.052;2022-08-19T11:51:13;34.30;99.90
19172;DHT22;9718;52.200;21.052;2022-08-19T11:53:41;34.30;99.90
19172;DHT22;9718;52.200;21.052;2022-08-19T11:56:09;34.30;99.90
19172;DHT22;9718;52.200;21.052;2022-08-19T11:58:37;34.10;99.90
19172;DHT22;9718;52.200;21.052;2022-08-19T12:01:06;34.00;99.90
19172;DHT22;9718;52.200;21.052;2022-08-19T12:03:34;33.60;99.90
19172;DHT22;9718;52.200;21.052;2022-08-19T12:06:06;33.70;99.90
19172;DHT22;9718;52.200;21.052;2022-08-19T12:08:34;33.90;99.90
19172;DHT22;9718;52.200;21.052;2022-08-19T12:11:01;33.90;99.90
19172;DHT22;9718;52.200;21.052;2022-08-19T12:13:30;33.90;99.90
19172;DHT22;9718;52.200;21.052;2022-08-19T12:15:57;34.00;99.90
19172;DHT22;9718;52.200;21.052;2022-08-19T12:18:25;34.20;99.90
19172;DHT22;9718;52.200;21.052;2022-08-19T12:20:53;34.00;99.90
19172;DHT22;9718;52.200;21.052;2022-08-19T12:23:21;33.80;99.90
19172;DHT22;9718;52.200;21.052;2022-08-19T12:25:49;34.00;99.90
19172;DHT22;9718;52.200;21.052;2022-08-19T12:28:23;34.00;99.90
19172;DHT22;9718;52.200;21.052;2022-08-19T12:30:51;34.20;99.90
19172;DHT22;9718;52.200;21.052;2022-08-19T12:33:19;34.40;99.90
19172;DHT22;9718;52.200;21.052;2022-08-19T12:35:51;34.40;99.90
19172;DHT22;9718;52.200;21.052;2022-08-19T12:38:19;34.50;99.90
19172;DHT22;9718;52.200;21.052;2022-08-19T12:40:47;34.30;99.90
19172;DHT22;9718;52.200;21.052;2022-08-19T12:43:14;34.30;99.90
19172;DHT22;9718;52.200;21.052;2022-08-19T12:45:42;34.30;99.90
19172;DHT22;9718;52.200;21.052;2022-08-19T12:48:13;34.20;99.90
19172;DHT22;9718;52.200;21.052;2022-08-19T12:51:06;33.90;99.90
19172;DHT22;9718;52.200;21.052;2022-08-19T12:53:34;33.80;99.90
19172;DHT22;9718;52.200;21.052;2022-08-19T12:56:06;33.70;99.90
19172;DHT22;9718;52.200;21.052;2022-08-19T12:58:37;33.70;99.90
19172;DHT22;9718;52.200;21.052;2022-08-19T13:01:12;33.70;99.90
19172;DHT22;9718;52.200;21.052;2022-08-19T13:03:40;33.60;99.90
19172;DHT22;9718;52.200;21.052;2022-08-19T13:06:08;33.80;99.90
19172;DHT22;9718;52.200;21.052;2022-08-19T13:08:36;34.10;99.90
19172;DHT22;9718;52.200;21.052;2022-08-19T13:11:11;33.90;99.90
19172;DHT22;9718;52.200;21.052;2022-08-19T13:13:41;33.90;99.90
19172;DHT22;9718;52.200;21.052;2022-08-19T13:16:10;33.80;99.90
19172;DHT22;9718;52.200;21.052;2022-08-19T13:18:38;33.70;99.90
19172;DHT22;9718;52.200;21.052;2022-08-19T13:21:08;33.60;99.90
19172;DHT22;9718;52.200;21.052;2022-08-19T13:23:36;33.60;99.90
19172;DHT22;9718;52.200;21.052;2022-08-19T13:26:05;33.70;99.90
19172;DHT22;9718;52.200;21.052;2022-08-19T13:28:33;33.90;99.90
19172;DHT22;9718;52.200;21.052;2022-08-19T13:31:22;33.90;99.90
19172;DHT22;9718;52.200;21.052;2022-08-19T13:34:08;33.80;99.90
19172;DHT22;9718;52.200;21.052;2022-08-19T13:36:36;33.80;99.90
19172;DHT22;9718;52.200;21.052;2022-08-19T13:39:05;33.70;99.90
19172;DHT22;9718;52.200;21.052;2022-08-19T13:41:32;33.40;99.90
19172;DHT22;9718;52.200;21.052;2022-08-19T13:44:01;33.40;99.90
19172;DHT22;9718;52.200;21.052;2022-08-19T13:46:29;33.50;99.90
19172;DHT22;9718;52.200;21.052;2022-08-19T13:48:57;33.50;99.90
19172;DHT22;9718;52.200;21.052;2022-08-19T13:51:24;33.60;99.90
19172;DHT22;9718;52.200;21.052;2022-08-19T13:53:51;33.80;99.90
19172;DHT22;9718;52.200;21.052;2022-08-19T13:56:19;33.80;99.90
19172;DHT22;9718;52.200;21.052;2022-08-19T13:58:51;33.90;99.90
19172;DHT22;9718;52.200;21.052;2022-08-19T14:01:23;33.90;99.90
19172;DHT22;9718;52.200;21.052;2022-08-19T14:03:51;33.90;99.90
19172;DHT22;9718;52.200;21.052;2022-08-19T14:06:19;33.70;99.90
19172;DHT22;9718;52.200;21.052;2022-08-19T14:08:48;33.60;99.90
19172;DHT22;9718;52.200;21.052;2022-08-19T14:11:15;33.60;99.90
19172;DHT22;9718;52.200;21.052;2022-08-19T14:13:42;33.50;99.90
19172;DHT22;9718;52.200;21.052;2022-08-19T14:16:11;33.50;99.90
19172;DHT22;9718;52.200;21.052;2022-08-19T14:18:38;33.40;99.90
19172;DHT22;9718;52.200;21.052;2022-08-19T14:21:06;33.40;99.90
19172;DHT22;9718;52.200;21.052;2022-08-19T14:23:33;33.40;99.90
19172;DHT22;9718;52.200;21.052;2022-08-19T14:26:08;33.40;99.90
19172;DHT22;9718;52.200;21.052;2022-08-19T14:28:36;33.40;99.90
19172;DHT22;9718;52.200;21.052;2022-08-19T14:31:03;33.50;99.90
19172;DHT22;9718;52.200;21.052;2022-08-19T14:33:30;33.40;99.90
19172;DHT22;9718;52.200;21.052;2022-08-19T14:35:57;33.40;99.90
19172;DHT22;9718;52.200;21.052;2022-08-19T14:38:26;33.30;99.90
19172;DHT22;9718;52.200;21.052;2022-08-19T14:41:18;33.20;99.90
19172;DHT22;9718;52.200;21.052;2022-08-19T14:43:48;33.10;99.90
19172;DHT22;9718;52.200;21.052;2022-08-19T14:46:18;33.10;99.90
19172;DHT22;9718;52.200;21.052;2022-08-19T14:48:48;33.00;99.90
19172;DHT22;9718;52.200;21.052;2022-08-19T14:51:19;33.00;99.90
19172;DHT22;9718;52.200;21.052;2022-08-19T14:53:46;32.90;99.90
19172;DHT22;9718;52.200;21.052;2022-08-19T14:56:19;32.80;99.90
19172;DHT22;9718;52.200;21.052;2022-08-19T14:58:46;32.90;99.90
19172;DHT22;9718;52.200;21.052;2022-08-19T15:01:13;32.90;99.90
19172;DHT22;9718;52.200;21.052;2022-08-19T15:03:41;32.80;99.90
19172;DHT22;9718;52.200;21.052;2022-08-19T15:06:08;32.90;99.90
19172;DHT22;9718;52.200;21.052;2022-08-19T15:08:40;32.80;99.90
19172;DHT22;9718;52.200;21.052;2022-08-19T15:11:13;32.70;99.90
19172;DHT22;9718;52.200;21.052;2022-08-19T15:13:42;32.60;99.90
19172;DHT22;9718;52.200;21.052;2022-08-19T15:16:10;32.50;99.90
19172;DHT22;9718;52.200;21.052;2022-08-19T15:18:45;32.20;99.90
19172;DHT22;9718;52.200;21.052;2022-08-19T15:21:14;32.20;99.90
19172;DHT22;9718;52.200;21.052;2022-08-19T15:23:55;32.10;99.90
19172;DHT22;9718;52.200;21.052;2022-08-19T15:26:22;32.20;99.90
19172;DHT22;9718;52.200;21.052;2022-08-19T15:28:49;32.10;99.90
19172;DHT22;9718;52.200;21.052;2022-08-19T15:31:18;32.10;99.90
19172;DHT22;9718;52.200;21.052;2022-08-19T15:33:55;32.00;99.90
19172;DHT22;9718;52.200;21.052;2022-08-19T15:36:26;31.90;99.90
19172;DHT22;9718;52.200;21.052;2022-08-19T15:38:54;31.80;99.90
19172;DHT22;9718;52.200;21.052;2022-08-19T15:41:24;31.70;99.90
19172;DHT22;9718;52.200;21.052;2022-08-19T15:44:13;31.70;99.90
19172;DHT22;9718;52.200;21.052;2022-08-19T15:46:42;31.70;99.90
19172;DHT22;9718;52.200;21.052;2022-08-19T15:49:11;31.60;99.90
19172;DHT22;9718;52.200;21.052;2022-08-19T15:51:40;31.60;99.90
19172;DHT22;9718;52.200;21.052;2022-08-19T15:54:14;31.60;99.90
19172;DHT22;9718;52.200;21.052;2022-08-19T15:56:42;31.50;99.90
19172;DHT22;9718;52.200;21.052;2022-08-19T15:59:28;31.50;99.90
19172;DHT22;9718;52.200;21.052;2022-08-19T16:02:37;31.40;99.90
19172;DHT22;9718;52.200;21.052;2022-08-19T16:05:27;31.40;99.90